Time;durP1;ratioP1;P1;durP2;ratioP2;P2;SDS_P1;SDS_P2;PMS_P1;PMS_P2;Temp;Humidity;BMP_temperature;BMP_pressure;BME280_temperature;BME280_humidity;BME280_pressure;Samples;Min_cycle;Max_cycle;Signal;HPM_P1;HPM_P2
2021/09/18 00:00:22;;;;;;;8.07;3.88;;;;;;;;;;4991973;28;20042;-70
2021/09/18 00:02:50;;;;;;;8.00;4.00;;;;;;;;;;4987828;28;20078;-68
2021/09/18 00:05:18;;;;;;;5.90;3.97;;;;;;;;;;4985500;28;20061;-68
2021/09/18 00:07:48;;;;;;;8.25;3.70;;;;;;;;;;4978398;28;20138;-68
2021/09/18 00:10:16;;;;;;;9.90;3.70;;;;;;;;;;4990617;28;20077;-68
2021/09/18 00:12:45;;;;;;;6.18;3.88;;;;;;;;;;4991647;28;20631;-69
2021/09/18 00:15:13;;;;;;;6.28;3.50;;;;;;;;;;4979879;28;20543;-69
2021/09/18 00:17:41;;;;;;;6.30;3.47;;;;;;;;;;4984724;28;20471;-68
2021/09/18 00:20:10;;;;;;;6.10;3.30;;;;;;;;;;4982899;28;20398;-69
2021/09/18 00:22:39;;;;;;;7.78;4.00;;;;;;;;;;4987588;28;20090;-68
2021/09/18 00:25:09;;;;;;;7.78;3.90;;;;;;;;;;4981232;28;20081;-68
2021/09/18 00:27:37;;;;;;;8.00;4.18;;;;;;;;;;4991292;28;20046;-68
2021/09/18 00:30:06;;;;;;;6.90;4.28;;;;;;;;;;4985743;28;20061;-68
2021/09/18 00:32:35;;;;;;;6.60;4.03;;;;;;;;;;4988365;28;20584;-68
2021/09/18 00:35:05;;;;;;;7.38;4.45;;;;;;;;;;4980551;28;20046;-68
2021/09/18 00:37:34;;;;;;;6.72;4.03;;;;;;;;;;4990583;28;20742;-69
2021/09/18 00:40:02;;;;;;;6.50;4.15;;;;;;;;;;4987172;28;20108;-69
2021/09/18 00:42:32;;;;;;;6.03;3.90;;;;;;;;;;4990614;28;20125;-70
2021/09/18 00:45:00;;;;;;;7.45;3.90;;;;;;;;;;4986097;28;20042;-69
2021/09/18 00:47:32;;;;;;;6.10;3.65;;;;;;;;;;4984496;28;20081;-69
2021/09/18 00:50:00;;;;;;;8.65;4.38;;;;;;;;;;4981969;28;20050;-69
2021/09/18 00:52:29;;;;;;;7.68;4.15;;;;;;;;;;4988258;28;20046;-69
2021/09/18 00:54:57;;;;;;;7.50;3.85;;;;;;;;;;4979966;28;20125;-69
2021/09/18 00:57:26;;;;;;;7.40;4.30;;;;;;;;;;4983133;28;20137;-70
2021/09/18 01:00:01;;;;;;;5.95;3.90;;;;;;;;;;4987266;28;20417;-69
2021/09/18 01:02:30;;;;;;;7.10;4.10;;;;;;;;;;4990080;23;20066;-72
2021/09/18 01:04:59;;;;;;;6.85;3.60;;;;;;;;;;4969489;28;20145;-73
2021/09/18 01:07:28;;;;;;;9.52;4.47;;;;;;;;;;4974488;28;20053;-71
2021/09/18 01:09:57;;;;;;;8.45;3.80;;;;;;;;;;4990483;28;20081;-71
2021/09/18 01:12:26;;;;;;;6.57;3.78;;;;;;;;;;4978355;28;20049;-71
2021/09/18 01:14:55;;;;;;;7.97;3.70;;;;;;;;;;4987021;28;20167;-71
2021/09/18 01:17:23;;;;;;;7.78;4.05;;;;;;;;;;4991813;28;20105;-71
2021/09/18 01:19:52;;;;;;;6.38;3.90;;;;;;;;;;4987760;28;20089;-71
2021/09/18 01:22:21;;;;;;;6.88;3.80;;;;;;;;;;4990897;28;20549;-71
2021/09/18 01:24:51;;;;;;;8.25;4.00;;;;;;;;;;4988356;28;20050;-72
2021/09/18 01:27:19;;;;;;;7.38;3.67;;;;;;;;;;4991253;28;20105;-71
2021/09/18 01:29:47;;;;;;;6.97;3.92;;;;;;;;;;4989706;28;20065;-71
2021/09/18 01:32:18;;;;;;;6.68;3.80;;;;;;;;;;4991053;28;20054;-71
2021/09/18 01:34:47;;;;;;;7.40;3.80;;;;;;;;;;4990751;28;20053;-71
2021/09/18 01:37:15;;;;;;;7.70;4.32;;;;;;;;;;4980114;28;20042;-71
2021/09/18 01:39:43;;;;;;;10.70;3.90;;;;;;;;;;4991300;28;20050;-71
2021/09/18 01:42:13;;;;;;;8.35;3.92;;;;;;;;;;4989500;28;20046;-71
2021/09/18 01:44:41;;;;;;;9.32;4.20;;;;;;;;;;4990661;28;20089;-71
2021/09/18 01:47:10;;;;;;;7.72;4.10;;;;;;;;;;4991319;28;20065;-70
2021/09/18 01:49:38;;;;;;;8.40;4.35;;;;;;;;;;4990043;28;20116;-72
2021/09/18 01:52:18;;;;;;;6.28;3.55;;;;;;;;;;4991280;28;20270;-71
2021/09/18 01:54:46;;;;;;;7.25;4.25;;;;;;;;;;4989965;28;20066;-71
2021/09/18 01:57:16;;;;;;;6.38;4.20;;;;;;;;;;4991646;28;20042;-71
2021/09/18 01:59:44;;;;;;;6.70;4.18;;;;;;;;;;4990828;28;20450;-70
2021/09/18 02:02:13;;;;;;;8.45;4.40;;;;;;;;;;4989919;28;20050;-70
2021/09/18 02:04:41;;;;;;;8.75;3.95;;;;;;;;;;4989943;28;20056;-70
2021/09/18 02:07:10;;;;;;;7.65;3.60;;;;;;;;;;4989188;28;20073;-71
2021/09/18 02:09:39;;;;;;;11.48;4.00;;;;;;;;;;4990884;28;20046;-71
2021/09/18 02:12:07;;;;;;;7.07;3.97;;;;;;;;;;4990466;28;20046;-74
2021/09/18 02:14:37;;;;;;;6.72;4.43;;;;;;;;;;4990843;28;20065;-71
2021/09/18 02:17:05;;;;;;;9.68;4.05;;;;;;;;;;4991293;28;20101;-71
2021/09/18 02:19:34;;;;;;;6.95;3.38;;;;;;;;;;4990097;28;20061;-72
2021/09/18 02:22:02;;;;;;;5.97;3.85;;;;;;;;;;4990454;28;20042;-71
2021/09/18 02:24:30;;;;;;;5.90;3.65;;;;;;;;;;4987844;28;20038;-72
2021/09/18 02:26:58;;;;;;;12.50;4.43;;;;;;;;;;4990903;28;20081;-72
2021/09/18 02:29:27;;;;;;;6.90;3.92;;;;;;;;;;4991188;28;20137;-71
2021/09/18 02:31:56;;;;;;;5.22;3.17;;;;;;;;;;4989856;28;20039;-70
2021/09/18 02:34:25;;;;;;;7.25;3.75;;;;;;;;;;4988618;28;20388;-72
2021/09/18 02:36:53;;;;;;;7.28;3.97;;;;;;;;;;4983171;28;20510;-71
2021/09/18 02:39:22;;;;;;;6.25;3.85;;;;;;;;;;4989769;28;20112;-73
2021/09/18 02:41:50;;;;;;;9.13;4.07;;;;;;;;;;4984305;28;20482;-71
2021/09/18 02:44:18;;;;;;;8.60;3.83;;;;;;;;;;4990939;28;20062;-71
2021/09/18 02:46:47;;;;;;;7.15;3.85;;;;;;;;;;4991150;28;20101;-72
2021/09/18 02:49:17;;;;;;;5.18;3.40;;;;;;;;;;4978425;28;20054;-70
2021/09/18 02:51:45;;;;;;;7.65;4.05;;;;;;;;;;4990966;28;20046;-71
2021/09/18 02:54:15;;;;;;;5.85;3.63;;;;;;;;;;4990255;28;20047;-73
2021/09/18 02:56:43;;;;;;;6.90;3.88;;;;;;;;;;4991129;28;20047;-72
2021/09/18 02:59:11;;;;;;;7.35;3.67;;;;;;;;;;4991623;28;20046;-70
2021/09/18 03:01:40;;;;;;;6.18;3.50;;;;;;;;;;4990837;28;20081;-70
2021/09/18 03:04:08;;;;;;;9.55;4.20;;;;;;;;;;4991270;28;20060;-71
2021/09/18 03:06:38;;;;;;;8.27;3.80;;;;;;;;;;4990299;28;20109;-70
2021/09/18 03:09:06;;;;;;;10.02;4.53;;;;;;;;;;4989359;28;20049;-71
2021/09/18 03:11:35;;;;;;;5.68;3.63;;;;;;;;;;4990433;28;20089;-71
2021/09/18 03:14:03;;;;;;;7.97;3.70;;;;;;;;;;4989054;28;20170;-70
2021/09/18 03:16:31;;;;;;;8.43;3.92;;;;;;;;;;4987499;28;20078;-70
2021/09/18 03:19:00;;;;;;;6.10;3.67;;;;;;;;;;4974916;28;20082;-73
2021/09/18 03:21:28;;;;;;;8.98;3.47;;;;;;;;;;4974279;28;20046;-72
2021/09/18 03:23:58;;;;;;;7.35;4.28;;;;;;;;;;4973537;28;20035;-70
2021/09/18 03:26:26;;;;;;;6.78;3.90;;;;;;;;;;4972633;28;20055;-70
2021/09/18 03:29:10;;;;;;;7.00;2.92;;;;;;;;;;1141540;28;10022815;-71
2021/09/18 03:31:38;;;;;;;5.55;3.00;;;;;;;;;;4648132;28;10001320;-70
2021/09/18 03:34:07;;;;;;;5.82;3.80;;;;;;;;;;4993582;28;20049;-71
2021/09/18 03:36:35;;;;;;;10.30;4.22;;;;;;;;;;4992826;28;20068;-70
2021/09/18 03:39:05;;;;;;;6.97;3.72;;;;;;;;;;4994499;28;20046;-71
2021/09/18 03:41:33;;;;;;;6.55;3.53;;;;;;;;;;4993598;28;20042;-70
2021/09/18 03:44:02;;;;;;;6.50;3.28;;;;;;;;;;4993105;28;20276;-70
2021/09/18 03:46:30;;;;;;;5.85;3.47;;;;;;;;;;4994386;28;20079;-72
2021/09/18 03:48:58;;;;;;;7.13;3.45;;;;;;;;;;4993920;28;20050;-71
2021/09/18 03:51:27;;;;;;;7.75;2.83;;;;;;;;;;4993678;28;20442;-73
2021/09/18 03:53:55;;;;;;;8.07;3.45;;;;;;;;;;4993142;28;20054;-70
2021/09/18 03:56:25;;;;;;;8.93;3.42;;;;;;;;;;4993167;28;20073;-72
2021/09/18 03:58:53;;;;;;;5.75;2.97;;;;;;;;;;4992381;28;20050;-70
2021/09/18 04:01:21;;;;;;;8.60;4.03;;;;;;;;;;4992041;28;20108;-70
2021/09/18 04:03:50;;;;;;;7.20;3.03;;;;;;;;;;4992385;28;20042;-70
2021/09/18 04:06:18;;;;;;;8.57;3.22;;;;;;;;;;4993330;28;20050;-70
2021/09/18 04:08:47;;;;;;;4.90;3.15;;;;;;;;;;4993080;28;20046;-70
2021/09/18 04:11:15;;;;;;;7.28;4.53;;;;;;;;;;4993452;28;20407;-71
2021/09/18 04:13:45;;;;;;;4.80;3.08;;;;;;;;;;4992402;28;20079;-71
2021/09/18 04:16:13;;;;;;;5.43;3.15;;;;;;;;;;4992906;28;20454;-72
2021/09/18 04:18:41;;;;;;;6.10;3.30;;;;;;;;;;4992450;28;20138;-70
2021/09/18 04:21:10;;;;;;;6.30;3.50;;;;;;;;;;4993252;28;20387;-72
2021/09/18 04:23:38;;;;;;;7.63;3.28;;;;;;;;;;4991348;28;20078;-70
2021/09/18 04:26:06;;;;;;;6.97;3.20;;;;;;;;;;4989423;28;20112;-75
2021/09/18 04:28:35;;;;;;;5.32;3.22;;;;;;;;;;4990859;28;20376;-70
2021/09/18 04:31:04;;;;;;;5.78;3.17;;;;;;;;;;4993847;28;20058;-70
2021/09/18 04:33:33;;;;;;;7.50;3.80;;;;;;;;;;4992218;28;20092;-71
2021/09/18 04:36:01;;;;;;;7.95;3.45;;;;;;;;;;4985469;28;20121;-70
2021/09/18 04:38:30;;;;;;;6.80;3.72;;;;;;;;;;4989479;28;20514;-73
2021/09/18 04:40:58;;;;;;;9.75;3.67;;;;;;;;;;4993341;28;20057;-71
2021/09/18 04:43:27;;;;;;;6.35;3.55;;;;;;;;;;4992498;28;20051;-70
2021/09/18 04:45:55;;;;;;;10.43;3.38;;;;;;;;;;4973931;28;20109;-70
2021/09/18 04:48:25;;;;;;;8.10;4.00;;;;;;;;;;4991630;28;20391;-70
2021/09/18 04:50:53;;;;;;;5.97;3.78;;;;;;;;;;4993103;28;20522;-70
2021/09/18 04:53:22;;;;;;;7.22;3.30;;;;;;;;;;4991919;28;20073;-71
2021/09/18 04:55:50;;;;;;;7.57;3.28;;;;;;;;;;4992612;28;20058;-73
2021/09/18 04:58:19;;;;;;;6.43;3.70;;;;;;;;;;4991834;28;20144;-70
2021/09/18 05:00:47;;;;;;;6.90;3.60;;;;;;;;;;4992503;28;20042;-72
2021/09/18 05:03:15;;;;;;;8.38;3.35;;;;;;;;;;4991240;28;20394;-71
2021/09/18 05:05:45;;;;;;;7.07;3.30;;;;;;;;;;4988577;28;20057;-70
2021/09/18 05:08:14;;;;;;;7.53;3.38;;;;;;;;;;4991622;28;20050;-70
2021/09/18 05:10:42;;;;;;;5.30;3.65;;;;;;;;;;4992300;28;20047;-70
2021/09/18 05:13:10;;;;;;;5.88;2.75;;;;;;;;;;4991382;28;20499;-74
2021/09/18 05:15:39;;;;;;;5.88;3.00;;;;;;;;;;4991661;28;20470;-71
2021/09/18 05:18:07;;;;;;;5.68;2.88;;;;;;;;;;4992867;28;20057;-71
2021/09/18 05:20:36;;;;;;;7.63;3.22;;;;;;;;;;4992460;28;20063;-70
2021/09/18 05:23:05;;;;;;;6.53;3.25;;;;;;;;;;4990388;28;20054;-72
2021/09/18 05:25:34;;;;;;;5.90;3.10;;;;;;;;;;4983772;28;20113;-71
2021/09/18 05:28:02;;;;;;;5.93;3.03;;;;;;;;;;4991404;28;20046;-70
2021/09/18 05:30:30;;;;;;;6.43;3.38;;;;;;;;;;4989650;28;20047;-75
2021/09/18 05:32:59;;;;;;;6.93;3.42;;;;;;;;;;4984418;28;20050;-76
2021/09/18 05:35:27;;;;;;;5.68;2.90;;;;;;;;;;4985993;28;20051;-71
2021/09/18 05:37:55;;;;;;;6.43;3.42;;;;;;;;;;4985407;28;20046;-70
2021/09/18 05:40:26;;;;;;;5.32;2.97;;;;;;;;;;4990285;28;20038;-70
2021/09/18 05:42:54;;;;;;;5.32;3.30;;;;;;;;;;4991936;28;20569;-70
2021/09/18 05:45:22;;;;;;;5.53;3.30;;;;;;;;;;4990196;28;20061;-70
2021/09/18 05:47:51;;;;;;;8.85;2.90;;;;;;;;;;4990459;28;20055;-70
2021/09/18 05:50:19;;;;;;;7.18;2.75;;;;;;;;;;4975378;28;20054;-71
2021/09/18 05:52:48;;;;;;;5.32;3.10;;;;;;;;;;4969391;28;20548;-69
2021/09/18 05:55:16;;;;;;;5.15;3.00;;;;;;;;;;4985830;28;20059;-69
2021/09/18 05:57:46;;;;;;;6.72;3.30;;;;;;;;;;4984837;28;20050;-69
2021/09/18 06:00:14;;;;;;;5.75;3.10;;;;;;;;;;4987759;28;20462;-71
2021/09/18 06:02:43;;;;;;;6.20;3.25;;;;;;;;;;4988107;28;20100;-70
2021/09/18 06:05:13;;;;;;;5.32;3.00;;;;;;;;;;4987729;28;20046;-70
2021/09/18 06:07:41;;;;;;;6.03;3.20;;;;;;;;;;4987811;28;20446;-70
2021/09/18 06:10:10;;;;;;;7.05;3.20;;;;;;;;;;4988601;28;20057;-69
2021/09/18 06:12:38;;;;;;;6.35;3.17;;;;;;;;;;4988143;28;20050;-71
2021/09/18 06:15:09;;;;;;;7.53;3.13;;;;;;;;;;4988728;28;20081;-70
2021/09/18 06:17:38;;;;;;;5.43;2.65;;;;;;;;;;4988990;28;20050;-71
2021/09/18 06:20:07;;;;;;;4.63;2.75;;;;;;;;;;4988650;28;20054;-70
2021/09/18 06:22:35;;;;;;;6.18;3.50;;;;;;;;;;4989160;28;20085;-70
2021/09/18 06:25:05;;;;;;;6.50;2.92;;;;;;;;;;4987686;28;20054;-71
2021/09/18 06:27:33;;;;;;;6.38;3.28;;;;;;;;;;4985666;28;20046;-68
2021/09/18 06:30:02;;;;;;;5.30;2.80;;;;;;;;;;4982596;28;20082;-70
2021/09/18 06:32:32;;;;;;;6.70;3.33;;;;;;;;;;4988043;28;20510;-72
2021/09/18 06:35:00;;;;;;;7.90;3.28;;;;;;;;;;4986063;28;20097;-73
2021/09/18 06:37:33;;;;;;;6.22;3.13;;;;;;;;;;4987039;28;20050;-70
2021/09/18 06:40:02;;;;;;;6.32;2.63;;;;;;;;;;4987638;28;20132;-70
2021/09/18 06:42:30;;;;;;;7.70;3.15;;;;;;;;;;4987236;28;20058;-72
2021/09/18 06:44:59;;;;;;;7.63;3.00;;;;;;;;;;4987515;28;20073;-73
2021/09/18 06:47:28;;;;;;;6.15;3.33;;;;;;;;;;4988636;28;20070;-69
2021/09/18 06:49:57;;;;;;;8.27;2.88;;;;;;;;;;4988458;28;20454;-69
2021/09/18 06:52:26;;;;;;;5.65;3.03;;;;;;;;;;4991058;28;20121;-67
2021/09/18 06:54:54;;;;;;;8.38;3.40;;;;;;;;;;4990367;28;20561;-71
2021/09/18 06:57:23;;;;;;;8.00;3.95;;;;;;;;;;4990665;28;20057;-68
2021/09/18 06:59:51;;;;;;;6.93;3.58;;;;;;;;;;4992071;28;20170;-68
2021/09/18 07:02:22;;;;;;;9.18;4.03;;;;;;;;;;4990634;28;20054;-68
2021/09/18 07:04:51;;;;;;;7.47;4.07;;;;;;;;;;4991435;28;20051;-69
2021/09/18 07:07:21;;;;;;;8.50;4.28;;;;;;;;;;4989408;28;20608;-68
2021/09/18 07:09:49;;;;;;;8.20;4.05;;;;;;;;;;4991290;28;20092;-68
2021/09/18 07:12:17;;;;;;;10.57;4.53;;;;;;;;;;4989698;28;20101;-70
2021/09/18 07:14:46;;;;;;;9.88;5.10;;;;;;;;;;4980409;28;20065;-70
2021/09/18 07:17:14;;;;;;;10.65;5.07;;;;;;;;;;4989404;28;20054;-68
2021/09/18 07:19:44;;;;;;;7.60;4.40;;;;;;;;;;4991073;28;20573;-69
2021/09/18 07:22:12;;;;;;;13.40;5.47;;;;;;;;;;4990473;28;20042;-68
2021/09/18 07:24:42;;;;;;;12.30;6.13;;;;;;;;;;4990535;28;20050;-72
2021/09/18 07:27:11;;;;;;;12.23;5.63;;;;;;;;;;4991586;28;20058;-69
2021/09/18 07:29:39;;;;;;;9.70;5.13;;;;;;;;;;4987801;28;20093;-69
2021/09/18 07:32:08;;;;;;;10.75;5.97;;;;;;;;;;4988184;28;20137;-68
2021/09/18 07:34:37;;;;;;;11.55;5.97;;;;;;;;;;4990210;28;20434;-68
2021/09/18 07:37:05;;;;;;;12.85;5.93;;;;;;;;;;4989767;28;20060;-71
2021/09/18 07:39:34;;;;;;;12.80;5.97;;;;;;;;;;4990467;28;20109;-70
2021/09/18 07:42:03;;;;;;;11.73;6.10;;;;;;;;;;4990722;28;20459;-68
2021/09/18 07:44:32;;;;;;;12.15;5.78;;;;;;;;;;4989708;28;20046;-69
2021/09/18 07:47:00;;;;;;;12.05;6.22;;;;;;;;;;4991327;28;20050;-70
2021/09/18 07:49:29;;;;;;;15.23;7.25;;;;;;;;;;4990669;28;20483;-68
2021/09/18 07:51:57;;;;;;;18.55;7.75;;;;;;;;;;4977548;28;20206;-70
2021/09/18 07:54:26;;;;;;;12.23;5.72;;;;;;;;;;4982856;28;20050;-68
2021/09/18 07:57:15;;;;;;;15.95;7.15;;;;;;;;;;4989545;28;20058;-70
2021/09/18 07:59:44;;;;;;;11.75;6.13;;;;;;;;;;4978441;28;20423;-68
2021/09/18 08:02:12;;;;;;;19.02;8.10;;;;;;;;;;4988962;28;20091;-70
2021/09/18 08:04:41;;;;;;;14.30;6.22;;;;;;;;;;4988321;28;20353;-69
2021/09/18 08:07:09;;;;;;;11.57;6.20;;;;;;;;;;4987992;28;20050;-68
2021/09/18 08:09:38;;;;;;;17.98;8.05;;;;;;;;;;4990743;28;20732;-72
2021/09/18 08:12:06;;;;;;;14.27;7.57;;;;;;;;;;4987423;28;20121;-69
2021/09/18 08:14:36;;;;;;;15.80;7.95;;;;;;;;;;4985676;28;20118;-69
2021/09/18 08:17:05;;;;;;;16.85;7.68;;;;;;;;;;4991737;28;20395;-72
2021/09/18 08:19:33;;;;;;;13.32;7.07;;;;;;;;;;4993068;28;20096;-71
2021/09/18 08:22:01;;;;;;;16.17;7.63;;;;;;;;;;4978205;28;20062;-70
2021/09/18 08:24:30;;;;;;;13.10;5.78;;;;;;;;;;4972917;28;20059;-72
2021/09/18 08:26:59;;;;;;;11.68;5.85;;;;;;;;;;4987243;28;20109;-70
2021/09/18 08:29:27;;;;;;;12.40;6.65;;;;;;;;;;4990165;28;20458;-69
2021/09/18 08:31:57;;;;;;;12.13;6.70;;;;;;;;;;4992453;28;20129;-69
2021/09/18 08:34:25;;;;;;;16.02;6.95;;;;;;;;;;4992344;28;20050;-70
2021/09/18 08:36:54;;;;;;;11.88;7.13;;;;;;;;;;4976692;28;20057;-69
2021/09/18 08:39:22;;;;;;;11.73;5.70;;;;;;;;;;4991945;28;20149;-69
2021/09/18 08:41:51;;;;;;;13.75;6.10;;;;;;;;;;4992492;28;20428;-69
2021/09/18 08:44:20;;;;;;;11.02;5.95;;;;;;;;;;4991194;28;20164;-69
2021/09/18 08:46:48;;;;;;;18.45;8.23;;;;;;;;;;4992633;28;20062;-70
2021/09/18 08:49:19;;;;;;;14.35;8.07;;;;;;;;;;4992192;28;20046;-68
2021/09/18 08:51:47;;;;;;;13.45;7.05;;;;;;;;;;4991836;28;20058;-69
2021/09/18 08:54:15;;;;;;;20.10;8.15;;;;;;;;;;4991222;28;20050;-69
2021/09/18 08:56:44;;;;;;;10.70;6.38;;;;;;;;;;4991773;28;20045;-68
2021/09/18 08:59:12;;;;;;;13.50;6.20;;;;;;;;;;4990280;28;20054;-68
2021/09/18 09:01:41;;;;;;;10.82;5.68;;;;;;;;;;4992282;28;20479;-68
2021/09/18 09:04:10;;;;;;;10.35;5.47;;;;;;;;;;4991439;28;20074;-69
2021/09/18 09:06:49;;;;;;;10.10;5.57;;;;;;;;;;4991938;28;20100;-68
2021/09/18 09:09:18;;;;;;;10.13;5.68;;;;;;;;;;4990490;28;20046;-70
2021/09/18 09:11:50;;;;;;;10.85;5.68;;;;;;;;;;4990543;28;20108;-68
2021/09/18 09:14:19;;;;;;;11.20;6.18;;;;;;;;;;4988582;28;20104;-70
2021/09/18 09:16:57;;;;;;;11.35;5.80;;;;;;;;;;4990138;28;20169;-68
2021/09/18 09:19:29;;;;;;;8.52;5.07;;;;;;;;;;4990787;28;20062;-69
2021/09/18 09:21:59;;;;;;;10.23;5.43;;;;;;;;;;4993127;28;20133;-69
2021/09/18 09:24:28;;;;;;;11.02;5.63;;;;;;;;;;4992004;28;20470;-69
2021/09/18 09:27:08;;;;;;;11.43;6.32;;;;;;;;;;4993144;28;20050;-68
2021/09/18 09:29:40;;;;;;;8.70;4.80;;;;;;;;;;4991857;28;20046;-68
2021/09/18 09:32:23;;;;;;;10.93;5.43;;;;;;;;;;4992087;28;20101;-69
2021/09/18 09:34:53;;;;;;;8.93;5.20;;;;;;;;;;4991729;28;20050;-69
2021/09/18 09:37:23;;;;;;;8.07;5.07;;;;;;;;;;4972566;28;20138;-68
2021/09/18 09:39:52;;;;;;;8.57;5.35;;;;;;;;;;4985466;28;20042;-68
2021/09/18 09:42:25;;;;;;;11.55;4.95;;;;;;;;;;4981331;28;20557;-69
2021/09/18 09:44:54;;;;;;;12.75;4.57;;;;;;;;;;4990563;28;20057;-69
2021/09/18 09:47:26;;;;;;;7.18;4.22;;;;;;;;;;4991201;28;20085;-72
2021/09/18 09:49:57;;;;;;;8.07;3.70;;;;;;;;;;4987480;28;20438;-69
2021/09/18 09:52:28;;;;;;;7.72;4.28;;;;;;;;;;4992327;28;20062;-70
2021/09/18 09:54:58;;;;;;;8.23;3.63;;;;;;;;;;4990907;28;20058;-69
2021/09/18 09:57:27;;;;;;;6.07;3.47;;;;;;;;;;4990862;28;20435;-69
2021/09/18 09:59:59;;;;;;;6.20;3.13;;;;;;;;;;4990274;28;20074;-68
2021/09/18 10:02:28;;;;;;;5.20;2.70;;;;;;;;;;4990729;28;20085;-69
2021/09/18 10:04:56;;;;;;;5.28;3.25;;;;;;;;;;4989589;28;20465;-68
2021/09/18 10:07:25;;;;;;;4.70;2.60;;;;;;;;;;4988022;28;20125;-69
2021/09/18 10:09:55;;;;;;;3.95;2.25;;;;;;;;;;4989229;28;20093;-69
2021/09/18 10:12:24;;;;;;;2.72;2.03;;;;;;;;;;4989500;28;20507;-69
2021/09/18 10:14:54;;;;;;;4.20;2.67;;;;;;;;;;4988089;28;20047;-69
2021/09/18 10:17:22;;;;;;;4.15;2.78;;;;;;;;;;4988997;28;20053;-69
2021/09/18 10:20:08;;;;;;;4.25;2.72;;;;;;;;;;4982338;28;20240;-68
2021/09/18 10:25:27;;;;;;;3.60;2.28;;;;;;;;;;4989267;28;20510;-68
2021/09/18 10:28:08;;;;;;;4.53;2.38;;;;;;;;;;4990223;28;20127;-69
2021/09/18 10:30:37;;;;;;;2.40;1.95;;;;;;;;;;4987849;28;20181;-69
2021/09/18 10:33:06;;;;;;;5.35;2.55;;;;;;;;;;4988145;28;20442;-69
2021/09/18 10:35:53;;;;;;;2.92;2.25;;;;;;;;;;4987135;28;20061;-67
2021/09/18 10:38:23;;;;;;;4.07;2.20;;;;;;;;;;4989767;28;20558;-67
2021/09/18 10:40:57;;;;;;;2.78;1.83;;;;;;;;;;4987007;28;20511;-69
2021/09/18 10:43:27;;;;;;;2.45;1.70;;;;;;;;;;4990011;28;20557;-66
2021/09/18 10:45:55;;;;;;;3.58;1.73;;;;;;;;;;4990870;28;20140;-66
2021/09/18 10:48:38;;;;;;;2.45;1.85;;;;;;;;;;4990334;28;20458;-66
2021/09/18 10:51:08;;;;;;;3.70;2.40;;;;;;;;;;4987706;28;20074;-67
2021/09/18 10:53:54;;;;;;;1.90;1.73;;;;;;;;;;4987357;28;20050;-67
2021/09/18 10:56:24;;;;;;;3.28;1.95;;;;;;;;;;4989975;28;20238;-67
2021/09/18 10:59:06;;;;;;;2.53;1.50;;;;;;;;;;4990822;28;20084;-67
2021/09/18 11:01:34;;;;;;;2.28;1.38;;;;;;;;;;4982575;28;20483;-67
2021/09/18 11:04:03;;;;;;;2.10;1.38;;;;;;;;;;4987805;28;20471;-67
2021/09/18 11:06:36;;;;;;;3.00;1.50;;;;;;;;;;4989024;28;20144;-68
2021/09/18 11:09:05;;;;;;;2.53;1.80;;;;;;;;;;4986663;28;20142;-66
2021/09/18 11:11:35;;;;;;;1.90;1.50;;;;;;;;;;4989842;28;20205;-67
2021/09/18 11:14:04;;;;;;;2.80;1.90;;;;;;;;;;4990278;28;20129;-66
2021/09/18 11:16:36;;;;;;;2.42;1.80;;;;;;;;;;4990839;28;20047;-67
2021/09/18 11:19:08;;;;;;;2.10;1.60;;;;;;;;;;4990547;28;20047;-67
2021/09/18 11:21:37;;;;;;;2.22;1.45;;;;;;;;;;4991712;28;20051;-66
2021/09/18 11:24:06;;;;;;;3.55;1.52;;;;;;;;;;4990344;28;20431;-67
2021/09/18 11:26:46;;;;;;;2.47;1.65;;;;;;;;;;4990913;28;20061;-65
2021/09/18 11:29:20;;;;;;;2.92;1.60;;;;;;;;;;4989763;28;20097;-65
2021/09/18 11:32:10;;;;;;;1.67;1.23;;;;;;;;;;4990488;28;20141;-67
2021/09/18 11:34:40;;;;;;;1.88;1.60;;;;;;;;;;4980248;28;20046;-66
2021/09/18 11:37:10;;;;;;;2.10;1.38;;;;;;;;;;4988715;28;20137;-66
2021/09/18 11:39:40;;;;;;;2.92;1.98;;;;;;;;;;4993215;28;20062;-66
2021/09/18 11:42:15;;;;;;;1.90;1.40;;;;;;;;;;4987819;28;20054;-67
2021/09/18 11:44:44;;;;;;;3.30;1.80;;;;;;;;;;4993107;28;20042;-66
2021/09/18 11:47:12;;;;;;;2.08;1.40;;;;;;;;;;4992994;28;20109;-66
2021/09/18 11:49:41;;;;;;;2.13;1.50;;;;;;;;;;4993255;28;20042;-66
2021/09/18 11:52:09;;;;;;;2.22;1.73;;;;;;;;;;4994067;28;20050;-67
2021/09/18 11:54:37;;;;;;;2.95;2.10;;;;;;;;;;4992763;28;20081;-66
2021/09/18 11:57:14;;;;;;;3.58;1.90;;;;;;;;;;4994072;28;20086;-66
2021/09/18 11:59:43;;;;;;;3.30;1.70;;;;;;;;;;4993179;28;20050;-67
2021/09/18 12:02:11;;;;;;;2.50;1.85;;;;;;;;;;4993106;28;20092;-68
2021/09/18 12:04:44;;;;;;;1.95;1.25;;;;;;;;;;4992887;28;20046;-66
2021/09/18 12:07:13;;;;;;;3.58;1.52;;;;;;;;;;4994392;28;20042;-66
2021/09/18 12:09:42;;;;;;;2.22;1.45;;;;;;;;;;4993359;28;20097;-66
2021/09/18 12:12:10;;;;;;;1.80;1.30;;;;;;;;;;4993311;28;20081;-67
2021/09/18 12:14:40;;;;;;;3.13;1.10;;;;;;;;;;4991159;28;20199;-67
2021/09/18 12:17:12;;;;;;;1.77;1.23;;;;;;;;;;4993147;28;20112;-67
2021/09/18 12:19:41;;;;;;;1.73;1.30;;;;;;;;;;4993248;28;20081;-66
2021/09/18 12:22:10;;;;;;;1.65;1.33;;;;;;;;;;4993580;28;20058;-66
2021/09/18 12:24:38;;;;;;;1.55;1.10;;;;;;;;;;4989863;28;20051;-68
2021/09/18 12:27:23;;;;;;;1.48;1.25;;;;;;;;;;4993204;28;20534;-66
2021/09/18 12:29:56;;;;;;;2.90;1.10;;;;;;;;;;4992996;28;20092;-66
2021/09/18 12:32:24;;;;;;;1.92;1.13;;;;;;;;;;4993183;28;20097;-66
2021/09/18 12:34:52;;;;;;;1.02;0.88;;;;;;;;;;4993055;28;20046;-66
2021/09/18 12:37:29;;;;;;;1.30;0.95;;;;;;;;;;4992519;28;20038;-66
2021/09/18 12:40:08;;;;;;;1.55;1.10;;;;;;;;;;4992608;28;20467;-67
2021/09/18 12:42:37;;;;;;;1.95;1.23;;;;;;;;;;4993040;28;20157;-66
2021/09/18 12:45:20;;;;;;;3.58;1.10;;;;;;;;;;4992477;28;20477;-66
2021/09/18 12:47:50;;;;;;;1.58;1.05;;;;;;;;;;4992651;28;20096;-67
2021/09/18 12:50:21;;;;;;;2.13;1.27;;;;;;;;;;4992856;28;20671;-66
2021/09/18 12:52:49;;;;;;;3.47;1.33;;;;;;;;;;4992970;28;20133;-67
2021/09/18 12:55:17;;;;;;;1.92;1.13;;;;;;;;;;4991477;28;20125;-66
2021/09/18 12:57:45;;;;;;;1.73;1.00;;;;;;;;;;4991404;28;20089;-67
2021/09/18 13:00:14;;;;;;;3.08;1.58;;;;;;;;;;4993597;28;20074;-68
2021/09/18 13:02:42;;;;;;;2.80;1.67;;;;;;;;;;4991874;28;20151;-66
2021/09/18 13:05:18;;;;;;;1.73;1.20;;;;;;;;;;4992457;28;20391;-66
2021/09/18 13:07:55;;;;;;;1.60;1.33;;;;;;;;;;4992735;28;20129;-67
2021/09/18 13:10:26;;;;;;;2.78;1.88;;;;;;;;;;4993225;28;20042;-67
2021/09/18 13:12:54;;;;;;;2.63;1.60;;;;;;;;;;4993516;28;20081;-66
2021/09/18 13:15:22;;;;;;;8.30;4.10;;;;;;;;;;4991815;28;20129;-67
2021/09/18 13:17:57;;;;;;;17.73;8.95;;;;;;;;;;4991656;28;20104;-67
2021/09/18 13:20:30;;;;;;;3.67;2.22;;;;;;;;;;4992502;28;20086;-69
2021/09/18 13:22:58;;;;;;;4.47;2.53;;;;;;;;;;4992662;28;20085;-67
2021/09/18 13:25:27;;;;;;;1.58;1.20;;;;;;;;;;4992117;28;20113;-67
2021/09/18 13:27:55;;;;;;;2.75;1.85;;;;;;;;;;4992267;28;20455;-67
2021/09/18 13:30:23;;;;;;;2.28;1.40;;;;;;;;;;4991912;28;20129;-67
2021/09/18 13:32:52;;;;;;;1.65;1.35;;;;;;;;;;4992189;28;20565;-67
2021/09/18 13:35:20;;;;;;;1.63;1.20;;;;;;;;;;4988287;28;20182;-67
2021/09/18 13:37:49;;;;;;;2.03;1.48;;;;;;;;;;4985817;28;20082;-69
2021/09/18 13:40:18;;;;;;;2.10;1.58;;;;;;;;;;4986526;28;20054;-67
2021/09/18 13:42:46;;;;;;;2.38;1.35;;;;;;;;;;4989782;28;20053;-67
2021/09/18 13:45:14;;;;;;;1.60;1.13;;;;;;;;;;4991654;28;20565;-66
2021/09/18 13:47:43;;;;;;;2.15;1.20;;;;;;;;;;4992101;28;20121;-66
2021/09/18 13:50:12;;;;;;;1.45;1.05;;;;;;;;;;4992117;28;20564;-66
2021/09/18 13:52:40;;;;;;;1.98;1.48;;;;;;;;;;4992523;28;20054;-66
2021/09/18 13:55:10;;;;;;;1.10;1.00;;;;;;;;;;4991959;28;20137;-67
2021/09/18 13:57:50;;;;;;;2.28;1.17;;;;;;;;;;4992680;28;20122;-66
2021/09/18 14:00:18;;;;;;;1.90;1.23;;;;;;;;;;4991810;28;20057;-67
2021/09/18 14:02:48;;;;;;;1.45;1.08;;;;;;;;;;4992352;28;20415;-66
2021/09/18 14:05:16;;;;;;;2.03;1.13;;;;;;;;;;4991463;28;20046;-66
2021/09/18 14:07:47;;;;;;;1.80;1.10;;;;;;;;;;4991417;28;20074;-66
2021/09/18 14:10:17;;;;;;;3.30;1.30;;;;;;;;;;4991282;28;20100;-67
2021/09/18 14:12:45;;;;;;;2.42;1.52;;;;;;;;;;4991603;28;20112;-66
2021/09/18 14:15:14;;;;;;;2.13;1.35;;;;;;;;;;4990982;28;20392;-66
2021/09/18 14:17:43;;;;;;;4.10;1.30;;;;;;;;;;4990996;28;20046;-68
2021/09/18 14:20:12;;;;;;;2.10;1.50;;;;;;;;;;4991346;28;20073;-66
2021/09/18 14:22:40;;;;;;;1.63;1.17;;;;;;;;;;4991633;28;20058;-66
2021/09/18 14:25:10;;;;;;;1.50;1.23;;;;;;;;;;4990869;28;20058;-66
2021/09/18 14:27:40;;;;;;;1.67;1.15;;;;;;;;;;4991228;28;20144;-66
2021/09/18 14:30:09;;;;;;;2.67;1.40;;;;;;;;;;4988942;28;20050;-67
2021/09/18 14:32:38;;;;;;;1.20;1.10;;;;;;;;;;4991905;28;20501;-66
2021/09/18 14:35:07;;;;;;;1.45;1.08;;;;;;;;;;4989043;28;20073;-67
2021/09/18 14:37:35;;;;;;;2.05;1.55;;;;;;;;;;4992004;28;20097;-66
2021/09/18 14:40:06;;;;;;;1.67;1.15;;;;;;;;;;4991041;28;20047;-68
2021/09/18 14:42:35;;;;;;;1.77;1.38;;;;;;;;;;4990601;28;20100;-67
2021/09/18 14:45:05;;;;;;;1.65;1.13;;;;;;;;;;4990073;28;20130;-67
2021/09/18 14:47:34;;;;;;;1.88;1.08;;;;;;;;;;4990965;28;20046;-66
2021/09/18 14:50:04;;;;;;;1.75;1.00;;;;;;;;;;4990704;28;20136;-69
2021/09/18 14:52:32;;;;;;;3.92;1.35;;;;;;;;;;4990930;28;20050;-69
2021/09/18 14:55:01;;;;;;;1.63;1.20;;;;;;;;;;4991140;28;20066;-70
2021/09/18 14:57:29;;;;;;;2.78;1.38;;;;;;;;;;4992539;28;20092;-66